sensor_id;sensor_type;location;lat;lon;timestamp;temperature;humidity
22456;DHT22;11395;53.204;6.502;2023-07-13T00:00:52;26.30;80.00
22456;DHT22;11395;53.204;6.502;2023-07-13T00:03:18;25.20;73.20
22456;DHT22;11395;53.204;6.502;2023-07-13T00:05:45;25.20;73.20
22456;DHT22;11395;53.204;6.502;2023-07-13T00:08:11;25.20;73.20
22456;DHT22;11395;53.204;6.502;2023-07-13T00:10:41;25.20;80.20
22456;DHT22;11395;53.204;6.502;2023-07-13T00:13:08;25.20;75.10
22456;DHT22;11395;53.204;6.502;2023-07-13T00:15:36;25.10;81.30
22456;DHT22;11395;53.204;6.502;2023-07-13T00:18:02;25.10;73.90
22456;DHT22;11395;53.204;6.502;2023-07-13T00:20:29;25.10;78.20
22456;DHT22;11395;53.204;6.502;2023-07-13T00:22:55;25.10;75.90
22456;DHT22;11395;53.204;6.502;2023-07-13T00:25:22;25.10;74.30
22456;DHT22;11395;53.204;6.502;2023-07-13T00:27:50;25.10;76.90
22456;DHT22;11395;53.204;6.502;2023-07-13T00:30:16;25.10;80.50
22456;DHT22;11395;53.204;6.502;2023-07-13T00:32:43;25.10;74.00
22456;DHT22;11395;53.204;6.502;2023-07-13T00:37:36;25.20;82.00
22456;DHT22;11395;53.204;6.502;2023-07-13T00:40:04;25.10;75.80
22456;DHT22;11395;53.204;6.502;2023-07-13T00:42:31;25.10;73.60
22456;DHT22;11395;53.204;6.502;2023-07-13T00:47:40;25.00;74.30
22456;DHT22;11395;53.204;6.502;2023-07-13T00:50:10;25.00;76.70
22456;DHT22;11395;53.204;6.502;2023-07-13T00:52:40;25.00;77.40
22456;DHT22;11395;53.204;6.502;2023-07-13T00:55:09;25.00;75.40
22456;DHT22;11395;53.204;6.502;2023-07-13T00:57:37;25.00;73.60
22456;DHT22;11395;53.204;6.502;2023-07-13T01:00:05;25.00;74.00
22456;DHT22;11395;53.204;6.502;2023-07-13T01:02:33;25.00;75.80
22456;DHT22;11395;53.204;6.502;2023-07-13T01:05:00;25.00;75.90
22456;DHT22;11395;53.204;6.502;2023-07-13T01:07:28;25.00;73.60
22456;DHT22;11395;53.204;6.502;2023-07-13T01:09:57;25.00;75.20
22456;DHT22;11395;53.204;6.502;2023-07-13T01:14:57;24.90;72.80
22456;DHT22;11395;53.204;6.502;2023-07-13T01:17:24;24.90;73.40
22456;DHT22;11395;53.204;6.502;2023-07-13T01:19:50;24.90;73.30
22456;DHT22;11395;53.204;6.502;2023-07-13T01:22:18;24.90;73.40
22456;DHT22;11395;53.204;6.502;2023-07-13T01:24:48;24.90;73.40
22456;DHT22;11395;53.204;6.502;2023-07-13T01:27:20;24.90;73.40
22456;DHT22;11395;53.204;6.502;2023-07-13T01:29:46;24.90;73.40
22456;DHT22;11395;53.204;6.502;2023-07-13T01:32:16;24.90;73.50
22456;DHT22;11395;53.204;6.502;2023-07-13T01:34:43;24.90;75.10
22456;DHT22;11395;53.204;6.502;2023-07-13T01:37:11;24.80;73.60
22456;DHT22;11395;53.204;6.502;2023-07-13T01:39:38;24.80;73.50
22456;DHT22;11395;53.204;6.502;2023-07-13T01:42:05;24.80;73.50
22456;DHT22;11395;53.204;6.502;2023-07-13T01:44:32;24.80;73.60
22456;DHT22;11395;53.204;6.502;2023-07-13T01:46:58;24.80;73.70
22456;DHT22;11395;53.204;6.502;2023-07-13T01:49:24;24.80;73.60
22456;DHT22;11395;53.204;6.502;2023-07-13T01:51:51;24.80;73.60
22456;DHT22;11395;53.204;6.502;2023-07-13T01:54:17;24.80;73.60
22456;DHT22;11395;53.204;6.502;2023-07-13T01:56:43;24.80;73.60
22456;DHT22;11395;53.204;6.502;2023-07-13T01:59:09;24.80;73.60
22456;DHT22;11395;53.204;6.502;2023-07-13T02:01:36;24.80;73.60
22456;DHT22;11395;53.204;6.502;2023-07-13T02:04:02;24.80;73.60
22456;DHT22;11395;53.204;6.502;2023-07-13T02:06:33;24.80;73.70
22456;DHT22;11395;53.204;6.502;2023-07-13T02:08:59;24.80;73.60
22456;DHT22;11395;53.204;6.502;2023-07-13T02:11:26;24.70;73.60
22456;DHT22;11395;53.204;6.502;2023-07-13T02:14:02;24.70;73.60
22456;DHT22;11395;53.204;6.502;2023-07-13T02:16:30;24.70;73.70
22456;DHT22;11395;53.204;6.502;2023-07-13T02:18:56;24.70;73.70
22456;DHT22;11395;53.204;6.502;2023-07-13T02:21:23;24.70;73.70
22456;DHT22;11395;53.204;6.502;2023-07-13T02:23:51;24.70;73.70
22456;DHT22;11395;53.204;6.502;2023-07-13T02:26:19;24.70;73.70
22456;DHT22;11395;53.204;6.502;2023-07-13T02:28:46;24.70;73.70
22456;DHT22;11395;53.204;6.502;2023-07-13T02:31:14;24.70;73.70
22456;DHT22;11395;53.204;6.502;2023-07-13T02:33:42;24.70;73.70
22456;DHT22;11395;53.204;6.502;2023-07-13T02:36:08;24.70;73.80
22456;DHT22;11395;53.204;6.502;2023-07-13T02:38:35;24.70;73.90
22456;DHT22;11395;53.204;6.502;2023-07-13T02:41:03;24.60;74.30
22456;DHT22;11395;53.204;6.502;2023-07-13T02:43:30;24.60;78.70
22456;DHT22;11395;53.204;6.502;2023-07-13T02:45:56;24.60;76.50
22456;DHT22;11395;53.204;6.502;2023-07-13T02:48:26;24.60;75.40
22456;DHT22;11395;53.204;6.502;2023-07-13T02:50:53;24.60;73.80
22456;DHT22;11395;53.204;6.502;2023-07-13T02:53:20;24.60;74.10
22456;DHT22;11395;53.204;6.502;2023-07-13T02:55:46;24.60;74.10
22456;DHT22;11395;53.204;6.502;2023-07-13T02:58:14;24.60;73.90
22456;DHT22;11395;53.204;6.502;2023-07-13T03:00:44;24.60;74.00
22456;DHT22;11395;53.204;6.502;2023-07-13T03:03:13;24.60;74.30
22456;DHT22;11395;53.204;6.502;2023-07-13T03:05:42;24.60;74.60
22456;DHT22;11395;53.204;6.502;2023-07-13T03:08:11;24.50;75.20
22456;DHT22;11395;53.204;6.502;2023-07-13T03:10:39;24.50;75.50
22456;DHT22;11395;53.204;6.502;2023-07-13T03:13:09;24.50;74.00
22456;DHT22;11395;53.204;6.502;2023-07-13T03:15:36;24.50;75.10
22456;DHT22;11395;53.204;6.502;2023-07-13T03:18:03;24.50;74.20
22456;DHT22;11395;53.204;6.502;2023-07-13T03:20:33;24.50;76.30
22456;DHT22;11395;53.204;6.502;2023-07-13T03:22:59;24.40;79.20
22456;DHT22;11395;53.204;6.502;2023-07-13T03:25:27;24.50;75.60
22456;DHT22;11395;53.204;6.502;2023-07-13T03:27:53;24.40;76.20
22456;DHT22;11395;53.204;6.502;2023-07-13T03:30:21;24.40;78.40
22456;DHT22;11395;53.204;6.502;2023-07-13T03:32:47;24.40;78.60
22456;DHT22;11395;53.204;6.502;2023-07-13T03:35:13;24.50;78.00
22456;DHT22;11395;53.204;6.502;2023-07-13T03:37:40;24.40;78.70
22456;DHT22;11395;53.204;6.502;2023-07-13T03:40:11;24.40;83.50
22456;DHT22;11395;53.204;6.502;2023-07-13T03:42:37;24.40;85.50
22456;DHT22;11395;53.204;6.502;2023-07-13T03:45:04;24.40;80.20
22456;DHT22;11395;53.204;6.502;2023-07-13T03:47:32;24.50;82.50
22456;DHT22;11395;53.204;6.502;2023-07-13T03:50:02;24.40;79.20
22456;DHT22;11395;53.204;6.502;2023-07-13T03:52:29;24.40;79.90
22456;DHT22;11395;53.204;6.502;2023-07-13T03:54:56;24.40;78.70
22456;DHT22;11395;53.204;6.502;2023-07-13T03:57:22;24.40;80.40
22456;DHT22;11395;53.204;6.502;2023-07-13T03:59:49;24.40;81.00
22456;DHT22;11395;53.204;6.502;2023-07-13T04:02:15;24.40;80.20
22456;DHT22;11395;53.204;6.502;2023-07-13T04:04:41;24.40;82.30
22456;DHT22;11395;53.204;6.502;2023-07-13T04:07:08;24.40;83.10
22456;DHT22;11395;53.204;6.502;2023-07-13T04:09:35;24.40;79.40
22456;DHT22;11395;53.204;6.502;2023-07-13T04:12:03;24.40;78.80
22456;DHT22;11395;53.204;6.502;2023-07-13T04:14:29;24.40;79.10
22456;DHT22;11395;53.204;6.502;2023-07-13T04:16:55;24.40;80.90
22456;DHT22;11395;53.204;6.502;2023-07-13T04:19:22;24.40;80.60
22456;DHT22;11395;53.204;6.502;2023-07-13T04:21:48;24.40;79.20
22456;DHT22;11395;53.204;6.502;2023-07-13T04:24:14;24.40;77.40
22456;DHT22;11395;53.204;6.502;2023-07-13T04:26:40;24.40;82.80
22456;DHT22;11395;53.204;6.502;2023-07-13T04:29:07;24.40;81.50
22456;DHT22;11395;53.204;6.502;2023-07-13T04:31:33;24.40;84.70
22456;DHT22;11395;53.204;6.502;2023-07-13T04:34:00;24.40;83.70
22456;DHT22;11395;53.204;6.502;2023-07-13T04:36:26;24.40;85.90
22456;DHT22;11395;53.204;6.502;2023-07-13T04:38:53;24.40;80.70
22456;DHT22;11395;53.204;6.502;2023-07-13T04:41:22;24.40;79.30
22456;DHT22;11395;53.204;6.502;2023-07-13T04:43:48;24.40;80.30
22456;DHT22;11395;53.204;6.502;2023-07-13T04:46:17;24.40;80.70
22456;DHT22;11395;53.204;6.502;2023-07-13T04:48:46;24.40;85.10
22456;DHT22;11395;53.204;6.502;2023-07-13T04:51:15;24.40;78.50
22456;DHT22;11395;53.204;6.502;2023-07-13T04:53:41;24.40;79.20
22456;DHT22;11395;53.204;6.502;2023-07-13T04:56:07;24.40;78.20
22456;DHT22;11395;53.204;6.502;2023-07-13T04:58:34;24.50;78.70
22456;DHT22;11395;53.204;6.502;2023-07-13T05:01:04;24.40;81.40
22456;DHT22;11395;53.204;6.502;2023-07-13T05:03:31;24.40;81.80
22456;DHT22;11395;53.204;6.502;2023-07-13T05:05:59;24.40;82.30
22456;DHT22;11395;53.204;6.502;2023-07-13T05:08:26;24.50;84.10
22456;DHT22;11395;53.204;6.502;2023-07-13T05:10:52;24.50;79.90
22456;DHT22;11395;53.204;6.502;2023-07-13T05:13:19;24.50;80.30
22456;DHT22;11395;53.204;6.502;2023-07-13T05:15:46;24.50;81.30
22456;DHT22;11395;53.204;6.502;2023-07-13T05:18:13;24.50;81.60
22456;DHT22;11395;53.204;6.502;2023-07-13T05:20:39;24.50;85.10
22456;DHT22;11395;53.204;6.502;2023-07-13T05:23:06;24.60;83.20
22456;DHT22;11395;53.204;6.502;2023-07-13T05:25:32;24.60;88.20
22456;DHT22;11395;53.204;6.502;2023-07-13T05:27:58;24.60;77.20
22456;DHT22;11395;53.204;6.502;2023-07-13T05:30:25;24.60;78.00
22456;DHT22;11395;53.204;6.502;2023-07-13T05:32:51;24.60;79.40
22456;DHT22;11395;53.204;6.502;2023-07-13T05:35:17;24.60;81.20
22456;DHT22;11395;53.204;6.502;2023-07-13T05:37:44;24.60;81.90
22456;DHT22;11395;53.204;6.502;2023-07-13T05:40:10;24.60;83.00
22456;DHT22;11395;53.204;6.502;2023-07-13T05:42:36;24.60;83.80
22456;DHT22;11395;53.204;6.502;2023-07-13T05:45:03;24.60;84.10
22456;DHT22;11395;53.204;6.502;2023-07-13T05:47:29;24.60;85.30
22456;DHT22;11395;53.204;6.502;2023-07-13T05:49:55;24.60;75.70
22456;DHT22;11395;53.204;6.502;2023-07-13T05:52:22;24.70;76.00
22456;DHT22;11395;53.204;6.502;2023-07-13T05:54:48;24.60;77.40
22456;DHT22;11395;53.204;6.502;2023-07-13T05:57:14;24.70;83.50
22456;DHT22;11395;53.204;6.502;2023-07-13T05:59:41;24.70;79.50
22456;DHT22;11395;53.204;6.502;2023-07-13T06:02:09;24.60;82.40
22456;DHT22;11395;53.204;6.502;2023-07-13T06:04:36;24.70;73.50
22456;DHT22;11395;53.204;6.502;2023-07-13T06:07:03;24.90;74.10
22456;DHT22;11395;53.204;6.502;2023-07-13T06:09:29;24.90;76.40
22456;DHT22;11395;53.204;6.502;2023-07-13T06:11:55;25.10;75.20
22456;DHT22;11395;53.204;6.502;2023-07-13T06:14:21;25.20;75.80
22456;DHT22;11395;53.204;6.502;2023-07-13T06:16:48;25.20;76.00
22456;DHT22;11395;53.204;6.502;2023-07-13T06:19:14;25.30;74.70
22456;DHT22;11395;53.204;6.502;2023-07-13T06:21:40;25.40;72.50
22456;DHT22;11395;53.204;6.502;2023-07-13T06:26:33;25.70;70.00
22456;DHT22;11395;53.204;6.502;2023-07-13T06:28:59;25.80;70.60
22456;DHT22;11395;53.204;6.502;2023-07-13T06:31:25;25.80;70.40
22456;DHT22;11395;53.204;6.502;2023-07-13T06:33:52;25.90;70.30
22456;DHT22;11395;53.204;6.502;2023-07-13T06:36:18;26.00;70.30
22456;DHT22;11395;53.204;6.502;2023-07-13T06:38:44;26.00;70.20
22456;DHT22;11395;53.204;6.502;2023-07-13T06:41:11;26.10;70.10
22456;DHT22;11395;53.204;6.502;2023-07-13T06:43:37;26.10;70.70
22456;DHT22;11395;53.204;6.502;2023-07-13T06:46:04;26.20;71.50
22456;DHT22;11395;53.204;6.502;2023-07-13T06:48:30;26.20;72.30
22456;DHT22;11395;53.204;6.502;2023-07-13T06:50:57;26.20;80.40
22456;DHT22;11395;53.204;6.502;2023-07-13T06:53:23;26.20;81.30
22456;DHT22;11395;53.204;6.502;2023-07-13T06:55:50;26.20;79.00
22456;DHT22;11395;53.204;6.502;2023-07-13T07:00:45;26.40;83.40
22456;DHT22;11395;53.204;6.502;2023-07-13T07:03:11;26.30;80.10
22456;DHT22;11395;53.204;6.502;2023-07-13T07:05:38;26.40;80.00
22456;DHT22;11395;53.204;6.502;2023-07-13T07:08:04;26.40;85.70
22456;DHT22;11395;53.204;6.502;2023-07-13T07:10:31;26.50;74.60
22456;DHT22;11395;53.204;6.502;2023-07-13T07:12:57;26.50;73.60
22456;DHT22;11395;53.204;6.502;2023-07-13T07:15:24;26.50;73.60
22456;DHT22;11395;53.204;6.502;2023-07-13T07:17:51;26.40;74.20
22456;DHT22;11395;53.204;6.502;2023-07-13T07:20:17;26.30;75.40
22456;DHT22;11395;53.204;6.502;2023-07-13T07:22:43;26.30;76.60
22456;DHT22;11395;53.204;6.502;2023-07-13T07:25:10;26.20;76.20
22456;DHT22;11395;53.204;6.502;2023-07-13T07:27:36;26.10;75.90
22456;DHT22;11395;53.204;6.502;2023-07-13T07:30:03;26.00;76.70
22456;DHT22;11395;53.204;6.502;2023-07-13T07:32:30;26.10;77.10
22456;DHT22;11395;53.204;6.502;2023-07-13T07:34:58;26.10;73.40
22456;DHT22;11395;53.204;6.502;2023-07-13T07:37:24;26.20;82.50
22456;DHT22;11395;53.204;6.502;2023-07-13T07:39:51;26.30;80.30
22456;DHT22;11395;53.204;6.502;2023-07-13T07:42:17;26.20;75.60
22456;DHT22;11395;53.204;6.502;2023-07-13T07:44:43;26.30;75.60
22456;DHT22;11395;53.204;6.502;2023-07-13T07:47:09;26.30;79.40
22456;DHT22;11395;53.204;6.502;2023-07-13T07:49:37;26.30;75.20
22456;DHT22;11395;53.204;6.502;2023-07-13T07:52:04;26.30;75.20
22456;DHT22;11395;53.204;6.502;2023-07-13T07:54:30;26.30;75.60
22456;DHT22;11395;53.204;6.502;2023-07-13T07:56:57;26.20;77.30
22456;DHT22;11395;53.204;6.502;2023-07-13T07:59:23;26.20;84.30
22456;DHT22;11395;53.204;6.502;2023-07-13T08:01:49;26.10;82.60
22456;DHT22;11395;53.204;6.502;2023-07-13T08:04:16;26.10;80.60
22456;DHT22;11395;53.204;6.502;2023-07-13T08:06:43;26.00;73.90
22456;DHT22;11395;53.204;6.502;2023-07-13T08:09:09;25.70;76.70
22456;DHT22;11395;53.204;6.502;2023-07-13T08:11:35;25.90;71.50
22456;DHT22;11395;53.204;6.502;2023-07-13T08:14:02;25.90;72.40
22456;DHT22;11395;53.204;6.502;2023-07-13T08:16:29;25.90;72.80
22456;DHT22;11395;53.204;6.502;2023-07-13T08:18:55;25.90;73.30
22456;DHT22;11395;53.204;6.502;2023-07-13T08:21:21;25.90;74.20
22456;DHT22;11395;53.204;6.502;2023-07-13T08:23:48;25.90;75.60
22456;DHT22;11395;53.204;6.502;2023-07-13T08:26:14;25.80;76.10
22456;DHT22;11395;53.204;6.502;2023-07-13T08:28:41;25.90;76.00
22456;DHT22;11395;53.204;6.502;2023-07-13T08:31:07;25.90;76.30
22456;DHT22;11395;53.204;6.502;2023-07-13T08:33:35;25.90;77.80
22456;DHT22;11395;53.204;6.502;2023-07-13T08:36:01;25.90;76.40
22456;DHT22;11395;53.204;6.502;2023-07-13T08:38:28;25.90;78.30
22456;DHT22;11395;53.204;6.502;2023-07-13T08:40:56;25.90;77.60
22456;DHT22;11395;53.204;6.502;2023-07-13T08:43:29;25.90;78.80
22456;DHT22;11395;53.204;6.502;2023-07-13T08:51:48;26.00;73.80
22456;DHT22;11395;53.204;6.502;2023-07-13T08:54:23;26.00;76.30
22456;DHT22;11395;53.204;6.502;2023-07-13T08:56:51;26.10;74.80
22456;DHT22;11395;53.204;6.502;2023-07-13T08:59:21;26.10;72.90
22456;DHT22;11395;53.204;6.502;2023-07-13T09:05:14;26.00;70.60
22456;DHT22;11395;53.204;6.502;2023-07-13T09:10:28;26.00;74.20
22456;DHT22;11395;53.204;6.502;2023-07-13T09:13:06;25.90;75.20
22456;DHT22;11395;53.204;6.502;2023-07-13T09:15:39;25.90;76.20
22456;DHT22;11395;53.204;6.502;2023-07-13T09:18:22;25.90;72.30
22456;DHT22;11395;53.204;6.502;2023-07-13T09:21:14;26.00;72.80
22456;DHT22;11395;53.204;6.502;2023-07-13T09:23:39;26.00;72.90
22456;DHT22;11395;53.204;6.502;2023-07-13T09:28:47;26.00;76.20
22456;DHT22;11395;53.204;6.502;2023-07-13T09:31:17;26.00;79.10
22456;DHT22;11395;53.204;6.502;2023-07-13T09:33:45;26.10;81.60
22456;DHT22;11395;53.204;6.502;2023-07-13T09:38:44;26.10;77.00
22456;DHT22;11395;53.204;6.502;2023-07-13T09:41:17;26.10;75.70
22456;DHT22;11395;53.204;6.502;2023-07-13T09:44:27;26.10;75.60
22456;DHT22;11395;53.204;6.502;2023-07-13T09:46:57;26.20;82.70
22456;DHT22;11395;53.204;6.502;2023-07-13T09:49:34;26.20;81.60
22456;DHT22;11395;53.204;6.502;2023-07-13T09:52:04;26.10;74.90
22456;DHT22;11395;53.204;6.502;2023-07-13T09:54:33;26.20;74.60
22456;DHT22;11395;53.204;6.502;2023-07-13T09:57:00;26.10;79.30
22456;DHT22;11395;53.204;6.502;2023-07-13T09:59:32;26.20;79.00
22456;DHT22;11395;53.204;6.502;2023-07-13T10:01:59;26.10;80.40
22456;DHT22;11395;53.204;6.502;2023-07-13T10:04:32;26.10;76.30
22456;DHT22;11395;53.204;6.502;2023-07-13T10:07:06;26.20;78.40
22456;DHT22;11395;53.204;6.502;2023-07-13T10:09:33;26.10;78.30
22456;DHT22;11395;53.204;6.502;2023-07-13T10:11:59;26.00;79.10
22456;DHT22;11395;53.204;6.502;2023-07-13T10:14:26;25.90;76.60
22456;DHT22;11395;53.204;6.502;2023-07-13T10:16:58;26.10;77.80
22456;DHT22;11395;53.204;6.502;2023-07-13T10:19:35;26.20;78.20
22456;DHT22;11395;53.204;6.502;2023-07-13T10:22:18;26.20;80.00
22456;DHT22;11395;53.204;6.502;2023-07-13T10:24:47;26.20;78.90
22456;DHT22;11395;53.204;6.502;2023-07-13T10:27:19;26.20;84.30
22456;DHT22;11395;53.204;6.502;2023-07-13T10:29:50;26.20;86.30
22456;DHT22;11395;53.204;6.502;2023-07-13T10:32:19;26.20;75.70
22456;DHT22;11395;53.204;6.502;2023-07-13T10:34:47;26.20;70.10
22456;DHT22;11395;53.204;6.502;2023-07-13T10:37:27;26.20;69.40
22456;DHT22;11395;53.204;6.502;2023-07-13T10:39:57;26.20;68.40
22456;DHT22;11395;53.204;6.502;2023-07-13T10:42:35;26.20;69.40
22456;DHT22;11395;53.204;6.502;2023-07-13T10:45:15;26.30;70.40
22456;DHT22;11395;53.204;6.502;2023-07-13T10:47:44;26.20;68.60
22456;DHT22;11395;53.204;6.502;2023-07-13T10:50:23;26.20;69.60
22456;DHT22;11395;53.204;6.502;2023-07-13T10:52:53;26.20;70.30
22456;DHT22;11395;53.204;6.502;2023-07-13T10:55:35;25.70;69.00
22456;DHT22;11395;53.204;6.502;2023-07-13T10:58:11;26.20;70.50
22456;DHT22;11395;53.204;6.502;2023-07-13T11:03:27;26.20;70.70
22456;DHT22;11395;53.204;6.502;2023-07-13T11:06:39;26.30;70.50
22456;DHT22;11395;53.204;6.502;2023-07-13T11:09:40;26.30;69.50
22456;DHT22;11395;53.204;6.502;2023-07-13T11:22:51;26.40;70.20
22456;DHT22;11395;53.204;6.502;2023-07-13T11:25:28;26.50;73.60
22456;DHT22;11395;53.204;6.502;2023-07-13T11:31:01;26.40;76.90
22456;DHT22;11395;53.204;6.502;2023-07-13T11:33:48;26.30;81.30
22456;DHT22;11395;53.204;6.502;2023-07-13T11:36:21;26.50;84.00
22456;DHT22;11395;53.204;6.502;2023-07-13T11:41:43;26.60;76.20
22456;DHT22;11395;53.204;6.502;2023-07-13T11:44:18;26.50;79.80
22456;DHT22;11395;53.204;6.502;2023-07-13T11:46:47;26.60;78.60
22456;DHT22;11395;53.204;6.502;2023-07-13T11:49:16;26.60;81.60
22456;DHT22;11395;53.204;6.502;2023-07-13T11:51:44;26.60;78.90
22456;DHT22;11395;53.204;6.502;2023-07-13T11:54:32;26.40;81.20
22456;DHT22;11395;53.204;6.502;2023-07-13T11:57:24;26.60;77.70
22456;DHT22;11395;53.204;6.502;2023-07-13T11:59:51;26.60;78.20
22456;DHT22;11395;53.204;6.502;2023-07-13T12:02:35;26.70;79.10
22456;DHT22;11395;53.204;6.502;2023-07-13T12:05:04;26.60;80.00
22456;DHT22;11395;53.204;6.502;2023-07-13T12:07:33;26.60;79.40
22456;DHT22;11395;53.204;6.502;2023-07-13T12:10:24;26.60;74.60
22456;DHT22;11395;53.204;6.502;2023-07-13T12:12:58;26.60;77.00
22456;DHT22;11395;53.204;6.502;2023-07-13T12:18:14;26.60;77.50
22456;DHT22;11395;53.204;6.502;2023-07-13T12:20:41;26.50;77.30
22456;DHT22;11395;53.204;6.502;2023-07-13T12:23:23;26.50;74.70
22456;DHT22;11395;53.204;6.502;2023-07-13T12:25:51;26.60;74.70
22456;DHT22;11395;53.204;6.502;2023-07-13T12:28:49;26.60;74.40
22456;DHT22;11395;53.204;6.502;2023-07-13T12:31:40;26.60;74.30
22456;DHT22;11395;53.204;6.502;2023-07-13T12:36:36;26.70;73.30
22456;DHT22;11395;53.204;6.502;2023-07-13T12:39:18;26.70;73.80
22456;DHT22;11395;53.204;6.502;2023-07-13T12:41:45;26.70;74.70
22456;DHT22;11395;53.204;6.502;2023-07-13T12:44:25;26.70;73.20
22456;DHT22;11395;53.204;6.502;2023-07-13T12:47:04;26.70;72.80
22456;DHT22;11395;53.204;6.502;2023-07-13T12:49:33;26.70;74.70
22456;DHT22;11395;53.204;6.502;2023-07-13T12:52:03;26.80;74.60
22456;DHT22;11395;53.204;6.502;2023-07-13T12:54:30;26.70;75.70
22456;DHT22;11395;53.204;6.502;2023-07-13T12:56:58;26.70;76.90
22456;DHT22;11395;53.204;6.502;2023-07-13T13:01:56;27.60;86.40
22456;DHT22;11395;53.204;6.502;2023-07-13T13:04:23;26.70;71.80
22456;DHT22;11395;53.204;6.502;2023-07-13T13:06:58;26.70;72.50
22456;DHT22;11395;53.204;6.502;2023-07-13T13:09:26;26.70;85.80
22456;DHT22;11395;53.204;6.502;2023-07-13T13:14:20;26.70;70.10
22456;DHT22;11395;53.204;6.502;2023-07-13T13:16:48;26.70;70.70
22456;DHT22;11395;53.204;6.502;2023-07-13T13:19:23;26.70;71.60
22456;DHT22;11395;53.204;6.502;2023-07-13T13:21:50;26.70;72.00
22456;DHT22;11395;53.204;6.502;2023-07-13T13:24:21;26.70;71.20
22456;DHT22;11395;53.204;6.502;2023-07-13T13:26:49;26.70;72.00
22456;DHT22;11395;53.204;6.502;2023-07-13T13:29:18;26.80;72.20
22456;DHT22;11395;53.204;6.502;2023-07-13T13:31:45;26.80;71.70
22456;DHT22;11395;53.204;6.502;2023-07-13T13:34:14;26.80;71.20
22456;DHT22;11395;53.204;6.502;2023-07-13T13:36:42;26.90;71.50
22456;DHT22;11395;53.204;6.502;2023-07-13T13:39:35;26.90;71.30
22456;DHT22;11395;53.204;6.502;2023-07-13T13:42:02;26.90;71.40
22456;DHT22;11395;53.204;6.502;2023-07-13T13:44:29;26.90;71.30
22456;DHT22;11395;53.204;6.502;2023-07-13T13:46:56;26.90;72.90
22456;DHT22;11395;53.204;6.502;2023-07-13T13:49:24;26.80;74.10
22456;DHT22;11395;53.204;6.502;2023-07-13T13:51:52;26.90;72.30
22456;DHT22;11395;53.204;6.502;2023-07-13T13:54:20;26.90;72.00
22456;DHT22;11395;53.204;6.502;2023-07-13T13:56:48;26.90;72.80
22456;DHT22;11395;53.204;6.502;2023-07-13T13:59:15;26.90;73.80
22456;DHT22;11395;53.204;6.502;2023-07-13T14:01:43;26.90;73.60
22456;DHT22;11395;53.204;6.502;2023-07-13T14:04:20;26.90;78.00
22456;DHT22;11395;53.204;6.502;2023-07-13T14:06:48;26.90;77.40
22456;DHT22;11395;53.204;6.502;2023-07-13T14:09:17;26.90;80.00
22456;DHT22;11395;53.204;6.502;2023-07-13T14:11:47;26.90;77.20
22456;DHT22;11395;53.204;6.502;2023-07-13T14:14:19;26.90;75.70
22456;DHT22;11395;53.204;6.502;2023-07-13T14:16:46;26.90;80.10
22456;DHT22;11395;53.204;6.502;2023-07-13T14:19:19;26.90;71.00
22456;DHT22;11395;53.204;6.502;2023-07-13T14:21:46;26.90;72.10
22456;DHT22;11395;53.204;6.502;2023-07-13T14:24:13;26.90;75.80
22456;DHT22;11395;53.204;6.502;2023-07-13T14:26:40;26.90;70.90
22456;DHT22;11395;53.204;6.502;2023-07-13T14:29:16;26.90;76.20
22456;DHT22;11395;53.204;6.502;2023-07-13T14:31:44;26.80;74.70
22456;DHT22;11395;53.204;6.502;2023-07-13T14:34:11;26.80;74.80
22456;DHT22;11395;53.204;6.502;2023-07-13T14:36:48;26.70;76.00
22456;DHT22;11395;53.204;6.502;2023-07-13T14:39:18;26.80;77.50
22456;DHT22;11395;53.204;6.502;2023-07-13T14:41:45;26.70;78.10
22456;DHT22;11395;53.204;6.502;2023-07-13T14:44:14;26.70;75.50
22456;DHT22;11395;53.204;6.502;2023-07-13T14:46:41;26.60;73.00
22456;DHT22;11395;53.204;6.502;2023-07-13T14:51:47;26.70;71.50
22456;DHT22;11395;53.204;6.502;2023-07-13T14:54:13;26.60;69.80
22456;DHT22;11395;53.204;6.502;2023-07-13T14:56:40;26.70;70.20
22456;DHT22;11395;53.204;6.502;2023-07-13T14:59:06;26.70;73.40
22456;DHT22;11395;53.204;6.502;2023-07-13T15:01:37;26.70;77.80
22456;DHT22;11395;53.204;6.502;2023-07-13T15:04:04;26.70;77.00
22456;DHT22;11395;53.204;6.502;2023-07-13T15:06:35;26.60;67.70
22456;DHT22;11395;53.204;6.502;2023-07-13T15:09:16;26.60;67.80
22456;DHT22;11395;53.204;6.502;2023-07-13T15:11:43;26.60;67.30
22456;DHT22;11395;53.204;6.502;2023-07-13T15:14:09;26.60;67.50
22456;DHT22;11395;53.204;6.502;2023-07-13T15:16:35;26.60;67.60
22456;DHT22;11395;53.204;6.502;2023-07-13T15:19:02;26.60;67.50
22456;DHT22;11395;53.204;6.502;2023-07-13T15:21:28;26.60;67.40
22456;DHT22;11395;53.204;6.502;2023-07-13T15:24:00;26.60;67.50
22456;DHT22;11395;53.204;6.502;2023-07-13T15:26:28;26.60;67.90
22456;DHT22;11395;53.204;6.502;2023-07-13T15:28:54;26.60;67.80
22456;DHT22;11395;53.204;6.502;2023-07-13T15:31:26;26.60;67.60
22456;DHT22;11395;53.204;6.502;2023-07-13T15:33:57;26.60;68.70
22456;DHT22;11395;53.204;6.502;2023-07-13T15:36:24;26.60;68.10
22456;DHT22;11395;53.204;6.502;2023-07-13T15:38:53;26.60;68.00
22456;DHT22;11395;53.204;6.502;2023-07-13T15:41:25;26.60;68.10
22456;DHT22;11395;53.204;6.502;2023-07-13T15:43:57;26.60;69.00
22456;DHT22;11395;53.204;6.502;2023-07-13T15:46:27;26.60;67.30
22456;DHT22;11395;53.204;6.502;2023-07-13T15:48:54;26.60;68.70
22456;DHT22;11395;53.204;6.502;2023-07-13T15:51:26;26.60;68.20
22456;DHT22;11395;53.204;6.502;2023-07-13T15:53:56;26.60;69.70
22456;DHT22;11395;53.204;6.502;2023-07-13T15:56:26;26.60;69.10
22456;DHT22;11395;53.204;6.502;2023-07-13T15:58:54;26.60;68.80
22456;DHT22;11395;53.204;6.502;2023-07-13T16:01:20;26.60;68.60
22456;DHT22;11395;53.204;6.502;2023-07-13T16:03:48;26.50;68.10
22456;DHT22;11395;53.204;6.502;2023-07-13T16:06:24;26.50;68.70
22456;DHT22;11395;53.204;6.502;2023-07-13T16:08:53;26.50;70.40
22456;DHT22;11395;53.204;6.502;2023-07-13T16:11:28;26.60;67.90
22456;DHT22;11395;53.204;6.502;2023-07-13T16:13:57;26.60;70.10
22456;DHT22;11395;53.204;6.502;2023-07-13T16:16:28;26.50;69.30
22456;DHT22;11395;53.204;6.502;2023-07-13T16:18:59;26.50;72.10
22456;DHT22;11395;53.204;6.502;2023-07-13T16:21:27;26.50;72.90
22456;DHT22;11395;53.204;6.502;2023-07-13T16:23:55;26.50;71.00
22456;DHT22;11395;53.204;6.502;2023-07-13T16:26:27;26.50;70.80
22456;DHT22;11395;53.204;6.502;2023-07-13T16:28:54;26.50;80.70
22456;DHT22;11395;53.204;6.502;2023-07-13T16:31:30;27.40;88.80
22456;DHT22;11395;53.204;6.502;2023-07-13T16:33:58;26.40;82.30
22456;DHT22;11395;53.204;6.502;2023-07-13T16:36:26;25.90;77.30
22456;DHT22;11395;53.204;6.502;2023-07-13T16:38:52;26.50;76.60
22456;DHT22;11395;53.204;6.502;2023-07-13T16:41:19;26.50;78.80
22456;DHT22;11395;53.204;6.502;2023-07-13T16:43:45;26.50;80.30